Time;durP1;ratioP1;P1;durP2;ratioP2;P2;SDS_P1;SDS_P2;PMS_P1;PMS_P2;Temp;Humidity;BMP_temperature;BMP_pressure;BME280_temperature;BME280_humidity;BME280_pressure;Samples;Min_cycle;Max_cycle;Signal;HPM_P1;HPM_P2
2023/06/07 00:01:51;;;;;;;7.75;3.30;;;15.60;91.00;;;;;;6159476;23;20063;-85
2023/06/07 00:04:17;;;;;;;8.30;3.08;;;15.60;90.90;;;;;;6186411;23;20017;-85
2023/06/07 00:06:42;;;;;;;8.95;3.38;;;15.50;90.80;;;;;;6184655;23;20024;-84
2023/06/07 00:09:09;;;;;;;8.80;3.38;;;15.50;90.80;;;;;;6185510;23;20062;-85
2023/06/07 00:11:38;;;;;;;10.70;3.42;;;15.40;90.80;;;;;;6185696;23;20021;-85
2023/06/07 00:14:04;;;;;;;10.15;3.40;;;15.40;90.90;;;;;;6185206;23;20028;-85
2023/06/07 00:16:30;;;;;;;10.02;3.85;;;15.30;90.80;;;;;;6159056;23;20021;-85
2023/06/07 00:18:57;;;;;;;7.53;3.47;;;15.30;90.90;;;;;;6185599;23;20077;-85
2023/06/07 00:21:23;;;;;;;8.02;3.30;;;15.20;90.90;;;;;;6184786;23;20356;-84
2023/06/07 00:23:49;;;;;;;6.72;3.45;;;15.20;91.00;;;;;;6185769;23;20072;-85
2023/06/07 00:26:15;;;;;;;8.88;3.38;;;15.10;91.10;;;;;;6186305;23;20017;-84
2023/06/07 00:28:41;;;;;;;9.05;3.45;;;15.10;91.20;;;;;;6157607;23;20465;-85
2023/06/07 00:31:07;;;;;;;8.02;3.50;;;15.10;91.10;;;;;;6159363;23;20337;-85
2023/06/07 00:33:34;;;;;;;9.02;3.50;;;15.00;91.20;;;;;;6159459;23;20386;-84
2023/06/07 00:35:59;;;;;;;8.35;3.20;;;14.90;91.20;;;;;;6184956;23;20017;-84
2023/06/07 00:38:25;;;;;;;10.20;3.60;;;14.90;91.20;;;;;;6159074;23;20024;-85
2023/06/07 00:40:51;;;;;;;8.48;3.15;;;14.90;91.20;;;;;;6159021;23;20052;-84
2023/06/07 00:43:17;;;;;;;7.82;3.50;;;14.80;91.20;;;;;;6184451;23;20024;-84
2023/06/07 00:45:43;;;;;;;8.25;3.45;;;14.80;91.30;;;;;;6185636;23;20021;-84
2023/06/07 00:48:09;;;;;;;7.55;3.28;;;14.70;91.50;;;;;;6158952;23;20013;-84
2023/06/07 00:50:35;;;;;;;8.05;3.33;;;14.70;91.60;;;;;;6158628;23;20070;-84
2023/06/07 00:53:02;;;;;;;7.63;3.30;;;14.70;91.80;;;;;;6158365;23;20032;-84
2023/06/07 00:55:28;;;;;;;9.65;3.45;;;14.60;91.70;;;;;;6184751;23;20017;-84
2023/06/07 00:57:54;;;;;;;7.40;3.17;;;14.60;91.70;;;;;;6158766;23;20393;-84
2023/06/07 01:00:20;;;;;;;10.23;3.38;;;14.50;91.90;;;;;;6159150;23;20020;-85
2023/06/07 01:02:49;;;;;;;7.95;3.30;;;14.50;91.80;;;;;;6157911;23;20021;-85
2023/06/07 01:05:16;;;;;;;10.88;3.90;;;14.50;92.00;;;;;;6158317;23;20028;-84
2023/06/07 01:07:45;;;;;;;13.85;3.65;;;14.40;92.20;;;;;;6158478;23;20041;-84
2023/06/07 01:10:11;;;;;;;9.07;3.40;;;14.40;92.00;;;;;;6184706;23;20017;-84
2023/06/07 01:12:37;;;;;;;7.97;3.08;;;14.40;92.10;;;;;;6158450;23;20128;-84
2023/06/07 01:15:04;;;;;;;10.73;3.70;;;14.30;92.30;;;;;;6185633;23;20013;-84
2023/06/07 01:17:31;;;;;;;10.75;3.63;;;14.30;92.60;;;;;;6184189;23;20012;-84
2023/06/07 01:19:58;;;;;;;9.30;3.58;;;14.30;92.70;;;;;;6185494;23;20013;-84
2023/06/07 01:22:27;;;;;;;9.85;3.42;;;14.30;92.80;;;;;;6185203;23;20017;-84
2023/06/07 01:24:56;;;;;;;11.48;3.83;;;14.20;92.90;;;;;;6183725;23;20013;-84
2023/06/07 01:27:27;;;;;;;9.38;3.22;;;14.20;92.90;;;;;;6185729;23;20017;-84
2023/06/07 01:29:54;;;;;;;10.88;3.47;;;14.20;92.80;;;;;;6158468;23;20021;-84
2023/06/07 01:32:21;;;;;;;7.80;3.30;;;14.20;92.80;;;;;;6157477;23;20021;-84
2023/06/07 01:34:49;;;;;;;9.60;3.75;;;14.20;92.80;;;;;;6184746;23;20100;-84
2023/06/07 01:37:15;;;;;;;8.45;3.40;;;14.10;92.80;;;;;;6185550;23;20013;-84
2023/06/07 01:39:41;;;;;;;9.93;3.28;;;14.10;92.80;;;;;;6157226;23;20021;-84
2023/06/07 01:42:09;;;;;;;8.15;3.25;;;14.10;92.80;;;;;;6185546;23;20128;-84
2023/06/07 01:44:37;;;;;;;10.60;3.47;;;14.10;92.90;;;;;;6157412;23;20561;-83
2023/06/07 01:47:04;;;;;;;7.82;3.50;;;14.00;92.90;;;;;;6158444;23;20024;-83
2023/06/07 01:49:30;;;;;;;7.03;3.05;;;14.00;92.80;;;;;;6185527;23;20021;-84
2023/06/07 01:51:55;;;;;;;9.75;3.63;;;13.90;92.70;;;;;;6157137;23;20045;-84
2023/06/07 01:54:21;;;;;;;9.02;3.58;;;13.90;92.80;;;;;;6158334;23;20021;-84
2023/06/07 01:57:06;;;;;;;9.55;3.20;;;13.90;92.80;;;;;;6158316;23;20100;-84
2023/06/07 02:00:00;;;;;;;7.60;3.42;;;13.80;92.50;;;;;;6184019;23;20091;-84
2023/06/07 02:02:49;;;;;;;9.23;3.30;;;13.80;92.60;;;;;;6158362;23;20013;-84
2023/06/07 02:05:18;;;;;;;6.30;3.10;;;13.70;92.60;;;;;;6185046;23;20013;-84
2023/06/07 02:07:53;;;;;;;10.00;3.63;;;13.80;93.00;;;;;;6184051;23;20017;-84
2023/06/07 02:10:26;;;;;;;8.55;3.45;;;13.70;93.00;;;;;;6185240;23;20016;-83
2023/06/07 02:12:53;;;;;;;7.82;3.28;;;13.70;93.00;;;;;;6184126;23;20017;-84
2023/06/07 02:15:20;;;;;;;10.10;3.45;;;13.60;93.10;;;;;;6158068;23;20013;-84
2023/06/07 02:17:57;;;;;;;8.13;3.47;;;13.60;93.10;;;;;;6185109;23;20099;-84
2023/06/07 02:20:28;;;;;;;10.02;3.35;;;13.60;93.10;;;;;;6158005;23;20017;-84
2023/06/07 02:22:55;;;;;;;9.90;3.30;;;13.60;93.10;;;;;;6157957;23;20242;-84
2023/06/07 02:25:22;;;;;;;7.53;3.40;;;13.60;93.10;;;;;;6184592;23;20021;-84
2023/06/07 02:27:47;;;;;;;6.40;3.22;;;13.50;93.10;;;;;;6183463;23;20458;-83
2023/06/07 02:30:13;;;;;;;8.75;3.20;;;13.50;93.00;;;;;;6159882;23;20024;-83
2023/06/07 02:32:39;;;;;;;7.88;3.42;;;13.40;92.90;;;;;;6186427;23;20025;-83
2023/06/07 02:35:08;;;;;;;8.07;3.10;;;13.40;92.80;;;;;;6158809;23;20017;-83
2023/06/07 02:37:35;;;;;;;9.48;3.45;;;13.40;92.80;;;;;;6185998;23;20036;-83
2023/06/07 02:40:00;;;;;;;8.65;3.72;;;13.30;93.20;;;;;;6186327;23;20060;-83
2023/06/07 02:42:26;;;;;;;8.13;3.55;;;13.30;92.90;;;;;;6185348;23;20017;-83
2023/06/07 02:44:52;;;;;;;8.65;3.38;;;13.30;92.90;;;;;;6186766;23;20020;-83
2023/06/07 02:47:18;;;;;;;8.65;3.67;;;13.20;92.80;;;;;;6186868;23;20101;-83
2023/06/07 02:49:43;;;;;;;9.50;3.55;;;13.20;92.90;;;;;;6185615;23;20024;-83
2023/06/07 02:52:10;;;;;;;8.90;3.60;;;13.20;93.00;;;;;;6186997;23;20438;-83
2023/06/07 02:54:36;;;;;;;9.70;3.13;;;13.10;92.90;;;;;;6159709;23;20024;-83
2023/06/07 02:57:01;;;;;;;11.55;3.72;;;13.10;93.00;;;;;;6159116;23;20017;-83
2023/06/07 02:59:27;;;;;;;8.38;3.58;;;13.10;93.10;;;;;;6160129;23;20020;-83
2023/06/07 03:01:53;;;;;;;8.77;3.50;;;13.10;93.10;;;;;;6158645;23;20713;-83
2023/06/07 03:04:20;;;;;;;9.80;3.25;;;13.10;93.20;;;;;;6160296;23;20087;-83
2023/06/07 03:06:46;;;;;;;7.45;3.65;;;13.00;93.00;;;;;;6159886;23;20477;-83
2023/06/07 03:09:15;;;;;;;11.45;4.13;;;13.00;92.90;;;;;;6185905;23;20024;-84
2023/06/07 03:11:40;;;;;;;10.80;3.65;;;13.00;92.90;;;;;;6159680;23;20028;-83
2023/06/07 03:14:06;;;;;;;7.97;3.40;;;12.90;92.90;;;;;;6159357;23;20021;-83
2023/06/07 03:16:32;;;;;;;10.23;3.30;;;13.00;93.10;;;;;;6185555;23;20009;-84
2023/06/07 03:18:57;;;;;;;8.27;3.55;;;12.90;92.90;;;;;;6186352;23;20017;-83
2023/06/07 03:21:23;;;;;;;8.93;3.42;;;12.90;92.70;;;;;;6186787;23;20341;-83
2023/06/07 03:23:49;;;;;;;11.38;3.75;;;12.90;92.80;;;;;;6158524;23;20051;-83
2023/06/07 03:26:16;;;;;;;8.38;3.38;;;12.90;92.80;;;;;;6186499;23;20023;-83
2023/06/07 03:28:42;;;;;;;6.97;3.47;;;12.80;92.90;;;;;;6186252;23;20017;-83
2023/06/07 03:31:08;;;;;;;8.75;3.50;;;12.90;93.00;;;;;;6185201;23;20389;-83
2023/06/07 03:33:33;;;;;;;11.60;3.30;;;12.80;93.20;;;;;;6185824;23;20013;-83
2023/06/07 03:35:59;;;;;;;9.48;3.50;;;12.80;93.00;;;;;;6186548;23;20024;-83
2023/06/07 03:38:24;;;;;;;9.25;3.45;;;12.80;93.10;;;;;;6185046;23;20021;-83
2023/06/07 03:40:50;;;;;;;8.32;3.30;;;12.80;93.10;;;;;;6186016;23;20454;-83
2023/06/07 03:43:16;;;;;;;8.30;3.33;;;12.80;93.10;;;;;;6159769;23;20041;-83
2023/06/07 03:45:41;;;;;;;9.65;3.40;;;12.80;93.10;;;;;;6158469;23;20021;-83
2023/06/07 03:48:07;;;;;;;10.90;3.60;;;12.80;93.10;;;;;;6159205;23;20013;-83
2023/06/07 03:50:32;;;;;;;12.40;3.88;;;12.80;93.10;;;;;;6159744;23;20048;-83
2023/06/07 03:52:58;;;;;;;10.00;3.50;;;12.80;93.00;;;;;;6158058;23;20049;-83
2023/06/07 03:55:23;;;;;;;8.80;3.22;;;12.80;92.90;;;;;;6159839;23;20426;-83
2023/06/07 03:57:49;;;;;;;9.32;3.28;;;12.80;93.00;;;;;;6158958;23;20079;-83
2023/06/07 04:00:17;;;;;;;9.93;3.30;;;12.80;93.00;;;;;;6159018;23;20315;-83
2023/06/07 04:02:43;;;;;;;6.22;3.00;;;12.80;93.10;;;;;;6159244;23;20013;-83
2023/06/07 04:05:09;;;;;;;6.80;3.03;;;12.80;93.20;;;;;;6158693;23;20116;-83
2023/06/07 04:07:34;;;;;;;11.82;3.10;;;12.80;93.00;;;;;;6185540;23;20052;-83
2023/06/07 04:10:00;;;;;;;8.00;3.00;;;12.80;92.90;;;;;;6186194;23;20064;-83
2023/06/07 04:12:25;;;;;;;8.27;3.08;;;12.80;92.90;;;;;;6158661;23;20135;-83
2023/06/07 04:14:51;;;;;;;8.27;2.90;;;12.80;93.00;;;;;;6159280;23;20027;-83
2023/06/07 04:17:17;;;;;;;10.32;3.20;;;12.80;93.10;;;;;;6186045;23;20374;-83
2023/06/07 04:19:42;;;;;;;7.85;2.70;;;12.80;93.00;;;;;;6157945;23;20017;-83
2023/06/07 04:22:08;;;;;;;11.00;2.83;;;12.90;93.00;;;;;;6159147;23;20013;-83
2023/06/07 04:24:33;;;;;;;11.50;3.28;;;12.80;93.10;;;;;;6185398;23;20319;-82
2023/06/07 04:27:01;;;;;;;10.02;3.13;;;12.80;93.00;;;;;;6158279;23;20095;-83
2023/06/07 04:29:26;;;;;;;13.00;3.33;;;12.80;93.40;;;;;;6158249;23;20514;-83
2023/06/07 04:31:56;;;;;;;8.38;2.75;;;12.80;93.30;;;;;;6185748;23;20013;-83
2023/06/07 04:34:25;;;;;;;9.95;2.75;;;12.80;93.00;;;;;;6158257;23;20438;-83
2023/06/07 04:36:52;;;;;;;11.35;3.15;;;12.80;92.80;;;;;;6160034;23;20505;-83
2023/06/07 04:39:18;;;;;;;9.65;2.88;;;12.90;92.80;;;;;;6185463;23;20462;-83
2023/06/07 04:41:45;;;;;;;11.32;3.30;;;12.90;92.90;;;;;;6158712;23;20023;-82
2023/06/07 04:44:11;;;;;;;8.77;2.78;;;12.90;92.90;;;;;;6159842;23;20059;-83
2023/06/07 04:46:39;;;;;;;7.50;2.75;;;12.90;92.90;;;;;;6160397;23;20379;-83
2023/06/07 04:49:05;;;;;;;8.85;2.95;;;12.90;92.90;;;;;;6185592;23;20028;-90
2023/06/07 04:51:31;;;;;;;11.68;3.67;;;12.90;93.00;;;;;;6161271;23;20048;-91
2023/06/07 04:54:01;;;;;;;14.50;3.30;;;12.90;93.20;;;;;;6187901;23;20021;-91
2023/06/07 04:56:27;;;;;;;6.90;2.95;;;12.90;93.00;;;;;;6187101;23;20017;-92
2023/06/07 04:58:53;;;;;;;8.63;3.03;;;13.00;92.90;;;;;;6187889;23;20381;-82
2023/06/07 05:01:22;;;;;;;8.68;3.00;;;12.90;92.80;;;;;;6186101;23;20013;-82
2023/06/07 05:03:50;;;;;;;8.00;2.72;;;12.90;92.60;;;;;;6159918;23;20021;-82
2023/06/07 05:06:18;;;;;;;11.35;3.47;;;13.00;92.70;;;;;;6159855;23;20370;-83
2023/06/07 05:08:44;;;;;;;9.27;2.83;;;13.00;92.90;;;;;;6183849;23;20064;-83
2023/06/07 05:11:10;;;;;;;11.07;3.15;;;13.00;92.70;;;;;;6155878;23;20085;-83
2023/06/07 05:13:36;;;;;;;9.55;2.92;;;13.00;92.70;;;;;;6186420;23;20024;-82
2023/06/07 05:16:02;;;;;;;15.93;3.92;;;13.00;92.80;;;;;;6160046;23;20017;-82
2023/06/07 05:18:31;;;;;;;13.20;3.58;;;13.10;93.30;;;;;;6159436;23;20013;-83
2023/06/07 05:20:57;;;;;;;12.20;2.83;;;13.10;93.50;;;;;;6159315;23;20048;-84
2023/06/07 05:23:22;;;;;;;10.63;3.47;;;13.10;93.60;;;;;;6157356;23;20338;-84
2023/06/07 05:25:48;;;;;;;7.85;2.90;;;13.10;93.50;;;;;;6184392;23;20092;-82
2023/06/07 05:28:13;;;;;;;13.32;3.40;;;13.10;93.20;;;;;;6158314;23;20469;-83
2023/06/07 05:30:39;;;;;;;11.40;2.80;;;13.10;93.10;;;;;;6183572;23;20012;-81
2023/06/07 05:33:06;;;;;;;10.13;2.97;;;13.20;93.30;;;;;;6185040;23;20017;-83
2023/06/07 05:35:32;;;;;;;11.40;3.10;;;13.20;93.30;;;;;;6184693;23;20020;-83
2023/06/07 05:37:58;;;;;;;9.25;3.13;;;13.20;93.40;;;;;;6183645;23;20021;-84
2023/06/07 05:40:23;;;;;;;10.73;2.80;;;13.20;93.30;;;;;;6157788;23;20319;-84
2023/06/07 05:42:50;;;;;;;9.25;2.75;;;13.30;93.30;;;;;;6185087;23;20374;-83
2023/06/07 05:45:16;;;;;;;6.90;2.15;;;13.30;93.30;;;;;;6157568;23;20013;-84
2023/06/07 05:47:43;;;;;;;14.55;3.00;;;13.30;93.20;;;;;;6184990;23;20059;-84
2023/06/07 05:50:10;;;;;;;10.82;2.63;;;13.40;93.30;;;;;;6184173;23;20087;-83
2023/06/07 05:52:40;;;;;;;9.38;2.58;;;13.40;93.40;;;;;;6183648;23;20064;-85
2023/06/07 05:55:07;;;;;;;10.50;2.83;;;13.40;93.40;;;;;;6184196;23;20013;-84
2023/06/07 05:57:34;;;;;;;11.30;3.15;;;13.40;93.40;;;;;;6183819;23;20323;-84
2023/06/07 05:59:59;;;;;;;10.93;2.80;;;13.50;93.40;;;;;;6156922;23;20075;-84
2023/06/07 06:02:29;;;;;;;15.48;3.33;;;13.50;93.40;;;;;;6184217;23;20013;-84
2023/06/07 06:04:56;;;;;;;12.50;2.92;;;13.50;93.50;;;;;;6157780;23;20024;-84
2023/06/07 06:07:21;;;;;;;9.60;2.53;;;13.50;93.50;;;;;;6187349;23;20024;-85
2023/06/07 06:09:47;;;;;;;11.13;2.83;;;13.50;93.40;;;;;;6185925;23;20013;-85
2023/06/07 06:12:13;;;;;;;9.18;2.60;;;13.50;93.50;;;;;;6186357;23;20016;-84
2023/06/07 06:14:38;;;;;;;9.23;2.53;;;13.50;93.40;;;;;;6160140;23;20017;-86
2023/06/07 06:17:05;;;;;;;11.23;2.70;;;13.50;93.30;;;;;;6186971;23;20072;-86
2023/06/07 06:19:31;;;;;;;11.68;2.80;;;13.60;93.30;;;;;;6159647;23;20132;-86
2023/06/07 06:21:56;;;;;;;10.05;2.83;;;13.60;93.40;;;;;;6159757;23;20065;-85
2023/06/07 06:24:22;;;;;;;6.85;2.53;;;13.60;93.40;;;;;;6159414;23;20017;-86
2023/06/07 06:26:47;;;;;;;11.55;2.95;;;13.60;93.50;;;;;;6185967;23;20013;-86
2023/06/07 06:29:13;;;;;;;9.65;2.78;;;13.70;93.50;;;;;;6160102;23;20104;-85
2023/06/07 06:31:40;;;;;;;7.95;2.40;;;13.80;93.50;;;;;;6159280;23;20044;-86
2023/06/07 06:34:07;;;;;;;8.57;2.22;;;13.80;93.40;;;;;;6159594;23;20446;-86
2023/06/07 06:36:33;;;;;;;11.88;2.92;;;13.90;93.30;;;;;;6160002;23;20472;-86
2023/06/07 06:38:59;;;;;;;11.35;2.88;;;13.90;93.30;;;;;;6186282;23;20048;-85
2023/06/07 06:41:25;;;;;;;9.65;2.67;;;14.00;93.40;;;;;;6185683;23;20053;-86
2023/06/07 06:43:51;;;;;;;7.03;2.30;;;14.00;93.30;;;;;;6186399;23;20051;-85
2023/06/07 06:46:16;;;;;;;11.23;2.70;;;14.10;93.20;;;;;;6186400;23;20383;-86
2023/06/07 06:48:42;;;;;;;10.45;2.90;;;14.10;93.20;;;;;;6184929;23;20020;-86
2023/06/07 06:51:08;;;;;;;10.40;2.72;;;14.20;93.10;;;;;;6186212;23;20017;-83
2023/06/07 06:53:33;;;;;;;8.73;2.55;;;14.30;93.10;;;;;;6159585;23;20021;-84
2023/06/07 06:55:59;;;;;;;7.53;2.40;;;14.30;93.10;;;;;;6158692;23;20013;-84
2023/06/07 06:58:25;;;;;;;7.80;2.63;;;14.40;93.10;;;;;;6185917;23;20056;-84
2023/06/07 07:00:53;;;;;;;6.70;2.15;;;14.50;93.10;;;;;;6159410;23;20450;-85
2023/06/07 07:03:19;;;;;;;8.25;2.63;;;14.50;93.10;;;;;;6185865;23;20021;-83
2023/06/07 07:05:45;;;;;;;14.35;3.05;;;14.50;92.90;;;;;;6159328;23;20005;-84
2023/06/07 07:08:10;;;;;;;8.23;2.40;;;14.60;93.00;;;;;;6159036;23;20040;-84
2023/06/07 07:10:36;;;;;;;9.32;2.45;;;14.70;93.00;;;;;;6158575;23;20013;-85
2023/06/07 07:13:01;;;;;;;8.98;2.55;;;14.70;92.90;;;;;;6185354;23;20021;-84
2023/06/07 07:15:28;;;;;;;8.45;2.33;;;14.80;92.90;;;;;;6157599;23;20017;-85
2023/06/07 07:17:53;;;;;;;7.53;2.33;;;14.90;92.90;;;;;;6185301;23;20021;-84
2023/06/07 07:20:19;;;;;;;13.25;3.05;;;15.00;92.90;;;;;;6159650;23;20009;-82
2023/06/07 07:22:46;;;;;;;10.63;2.67;;;15.00;92.90;;;;;;6158088;23;20023;-83
2023/06/07 07:25:12;;;;;;;10.52;2.70;;;15.10;92.80;;;;;;6159183;23;20107;-84
2023/06/07 07:27:38;;;;;;;8.70;2.70;;;15.20;92.70;;;;;;6159065;23;20017;-83
2023/06/07 07:30:04;;;;;;;12.18;3.33;;;15.30;92.60;;;;;;6158944;23;20048;-84
2023/06/07 07:32:30;;;;;;;8.30;2.63;;;15.30;92.60;;;;;;6186470;23;20025;-84
2023/06/07 07:34:56;;;;;;;8.07;2.35;;;15.40;92.70;;;;;;6186171;23;20013;-84
2023/06/07 07:37:21;;;;;;;12.45;3.20;;;15.50;92.50;;;;;;6158959;23;20059;-83
2023/06/07 07:39:47;;;;;;;10.75;3.00;;;15.60;92.00;;;;;;6185509;23;20024;-84
2023/06/07 07:42:13;;;;;;;11.35;3.17;;;15.60;92.10;;;;;;6186480;23;20017;-84
2023/06/07 07:44:39;;;;;;;9.82;2.95;;;15.70;92.00;;;;;;6184631;23;20088;-83
2023/06/07 07:47:07;;;;;;;9.52;2.63;;;15.70;91.90;;;;;;6185810;23;20021;-83
2023/06/07 07:49:33;;;;;;;10.85;2.80;;;15.70;92.00;;;;;;6185613;23;20044;-84
2023/06/07 07:51:59;;;;;;;10.27;2.85;;;15.80;92.20;;;;;;6158583;23;20021;-84
2023/06/07 07:54:25;;;;;;;11.80;2.92;;;16.00;92.30;;;;;;6186296;23;20017;-84
2023/06/07 07:56:51;;;;;;;8.85;2.75;;;16.00;92.20;;;;;;6158907;23;20017;-84
2023/06/07 07:59:16;;;;;;;17.75;3.90;;;16.10;92.20;;;;;;6158697;23;20021;-84
2023/06/07 08:01:42;;;;;;;7.90;2.30;;;16.20;91.80;;;;;;6159136;23;20017;-84
2023/06/07 08:04:07;;;;;;;7.75;2.80;;;16.30;92.00;;;;;;6186192;23;20021;-83
2023/06/07 08:06:33;;;;;;;11.60;3.08;;;16.40;92.00;;;;;;6158676;23;20013;-84
2023/06/07 08:08:59;;;;;;;6.88;2.50;;;16.50;91.40;;;;;;6185908;23;20205;-83
2023/06/07 08:11:25;;;;;;;7.40;2.33;;;16.60;91.50;;;;;;6184483;23;20013;-85
2023/06/07 08:13:51;;;;;;;9.63;2.78;;;16.70;91.80;;;;;;6185212;23;20013;-86
2023/06/07 08:16:17;;;;;;;10.88;2.90;;;16.80;91.90;;;;;;6158896;23;20063;-87
2023/06/07 08:18:44;;;;;;;9.93;3.13;;;16.90;91.90;;;;;;6183643;23;20013;-87
2023/06/07 08:21:12;;;;;;;9.85;2.75;;;17.00;91.60;;;;;;6186006;23;20013;-87
2023/06/07 08:23:37;;;;;;;11.52;2.78;;;17.10;91.70;;;;;;6158782;23;20017;-88
2023/06/07 08:26:03;;;;;;;7.60;2.40;;;17.20;91.50;;;;;;6158375;23;20024;-88
2023/06/07 08:28:29;;;;;;;6.70;2.38;;;17.30;91.50;;;;;;6159047;23;20035;-88
2023/06/07 08:30:55;;;;;;;9.80;2.75;;;17.40;91.60;;;;;;6185321;23;20064;-88
2023/06/07 08:33:21;;;;;;;6.97;2.58;;;17.50;91.50;;;;;;6158068;23;20040;-87
2023/06/07 08:35:46;;;;;;;8.15;2.67;;;17.50;91.40;;;;;;6158928;23;20017;-86
2023/06/07 08:38:12;;;;;;;10.90;3.15;;;17.60;91.40;;;;;;6158908;23;20021;-88
2023/06/07 08:40:38;;;;;;;8.88;2.70;;;17.70;91.20;;;;;;6183980;23;20021;-87
2023/06/07 08:43:04;;;;;;;8.32;3.33;;;17.80;91.00;;;;;;6159339;23;20017;-88
2023/06/07 08:45:30;;;;;;;10.18;2.90;;;17.80;90.60;;;;;;6159022;23;20024;-88
2023/06/07 08:47:57;;;;;;;7.93;2.58;;;17.90;90.80;;;;;;6184702;23;20021;-87
2023/06/07 08:50:23;;;;;;;12.57;2.92;;;17.90;91.00;;;;;;6158835;23;20051;-88
2023/06/07 08:52:53;;;;;;;12.10;3.35;;;18.10;91.10;;;;;;6184989;23;20017;-87
2023/06/07 08:55:19;;;;;;;8.13;2.67;;;18.10;90.60;;;;;;6158153;23;20068;-88
2023/06/07 08:57:51;;;;;;;6.78;2.25;;;18.20;90.90;;;;;;6185499;23;20013;-87
2023/06/07 09:00:24;;;;;;;7.10;2.50;;;18.30;91.00;;;;;;6158579;23;20020;-88
2023/06/07 09:02:52;;;;;;;;;;;18.40;91.00;;;;;;6157788;23;20490;-88
2023/06/07 09:05:20;;;;;;;11.20;3.10;;;18.40;90.20;;;;;;6185751;23;20313;-88
2023/06/07 09:07:46;;;;;;;11.20;3.60;;;18.50;90.30;;;;;;6158482;23;20017;-90
2023/06/07 09:10:13;;;;;;;10.20;2.97;;;18.60;89.40;;;;;;6158794;23;20009;-86
2023/06/07 09:12:39;;;;;;;9.85;2.63;;;18.60;90.00;;;;;;6158231;23;20017;-88
2023/06/07 09:15:07;;;;;;;11.13;3.22;;;18.70;90.50;;;;;;6183927;23;20013;-88
2023/06/07 09:17:52;;;;;;;9.43;3.00;;;18.70;90.40;;;;;;6158594;23;20453;-86
2023/06/07 09:20:20;;;;;;;14.23;3.53;;;18.80;89.20;;;;;;6184033;23;20342;-87
2023/06/07 09:23:01;;;;;;;9.02;3.00;;;18.80;88.90;;;;;;6157190;23;20013;-88
2023/06/07 09:25:28;;;;;;;11.85;3.17;;;18.90;89.80;;;;;;6184053;23;20100;-87
2023/06/07 09:27:55;;;;;;;9.88;3.15;;;18.90;90.00;;;;;;6184414;23;20059;-87
2023/06/07 09:30:21;;;;;;;16.05;3.50;;;19.00;90.10;;;;;;6156902;23;20029;-86
2023/06/07 09:32:47;;;;;;;10.75;3.30;;;19.10;88.00;;;;;;6157026;23;20421;-88
2023/06/07 09:35:18;;;;;;;9.25;2.83;;;19.20;89.30;;;;;;6158088;23;20051;-89
2023/06/07 09:37:52;;;;;;;11.27;3.17;;;19.20;89.90;;;;;;6157592;23;20065;-89
2023/06/07 09:40:18;;;;;;;8.50;2.90;;;19.30;89.60;;;;;;6185020;23;20028;-90
2023/06/07 09:42:44;;;;;;;8.82;2.97;;;19.40;90.20;;;;;;6183557;23;20016;-88
2023/06/07 09:45:15;;;;;;;7.80;2.92;;;19.50;90.00;;;;;;6158586;23;20081;-89
2023/06/07 09:47:45;;;;;;;8.80;2.75;;;19.60;90.00;;;;;;6158221;23;20013;-86
2023/06/07 09:50:12;;;;;;;11.93;3.50;;;19.70;90.20;;;;;;6157786;23;20104;-88
2023/06/07 09:52:39;;;;;;;11.20;3.03;;;19.80;89.20;;;;;;6156380;23;20017;-88
2023/06/07 09:55:06;;;;;;;6.68;2.70;;;19.90;88.90;;;;;;6158220;23;20492;-86
2023/06/07 09:57:34;;;;;;;15.95;4.03;;;20.00;89.90;;;;;;6157456;23;20040;-84
2023/06/07 10:00:13;;;;;;;9.60;3.10;;;20.10;86.70;;;;;;6157796;23;20025;-83
2023/06/07 10:02:41;;;;;;;10.10;2.83;;;20.20;87.30;;;;;;6184315;23;20020;-83
2023/06/07 10:05:07;;;;;;;9.77;3.22;;;20.30;88.20;;;;;;6157559;23;20017;-84
2023/06/07 10:07:45;;;;;;;10.38;3.25;;;20.40;87.50;;;;;;6157951;23;20017;-85
2023/06/07 10:10:12;;;;;;;11.18;3.10;;;20.50;88.50;;;;;;6158652;23;20021;-86
2023/06/07 10:12:42;;;;;;;12.20;3.63;;;20.50;87.40;;;;;;6156754;23;20096;-86
2023/06/07 10:15:14;;;;;;;12.82;3.50;;;20.60;84.10;;;;;;6158080;23;20099;-85
2023/06/07 10:17:52;;;;;;;8.68;3.08;;;20.60;82.00;;;;;;6157938;23;20005;-84
2023/06/07 10:20:27;;;;;;;7.85;3.00;;;20.70;86.50;;;;;;6184575;23;20350;-85
2023/06/07 10:23:01;;;;;;;8.55;3.03;;;20.70;86.90;;;;;;6157467;23;20609;-84
2023/06/07 10:25:30;;;;;;;15.57;3.70;;;20.80;88.10;;;;;;6156991;23;20017;-83
2023/06/07 10:28:28;;;;;;;6.97;2.53;;;20.90;84.30;;;;;;6158060;23;20032;-87
2023/06/07 10:31:05;;;;;;;11.05;2.97;;;21.00;86.90;;;;;;6158176;23;20024;-88
2023/06/07 10:33:35;;;;;;;10.07;3.17;;;21.10;88.00;;;;;;6184142;23;20043;-87
2023/06/07 10:36:01;;;;;;;8.93;3.20;;;21.20;86.60;;;;;;6158368;23;20020;-88
2023/06/07 10:38:32;;;;;;;9.35;2.65;;;21.30;84.40;;;;;;6184917;23;20095;-87
2023/06/07 10:40:58;;;;;;;10.43;3.20;;;21.30;86.50;;;;;;6157281;23;20096;-87
2023/06/07 10:43:27;;;;;;;8.38;3.50;;;21.40;86.80;;;;;;6158682;23;20100;-88
2023/06/07 10:46:24;;;;;;;10.30;3.67;;;21.40;86.70;;;;;;6158435;23;20521;-87
2023/06/07 10:48:51;;;;;;;8.70;2.75;;;21.50;86.80;;;;;;6157656;23;20021;-87
2023/06/07 10:51:16;;;;;;;10.98;3.40;;;21.60;88.00;;;;;;6185824;23;20024;-87
2023/06/07 10:53:55;;;;;;;15.25;3.75;;;21.70;83.80;;;;;;6157978;23;20021;-86
2023/06/07 10:56:32;;;;;;;10.95;3.20;;;21.70;79.40;;;;;;6185959;23;20013;-89
2023/06/07 10:59:21;;;;;;;9.43;2.88;;;21.70;83.60;;;;;;6159295;23;20136;-89
2023/06/07 11:01:49;;;;;;;14.23;3.80;;;21.80;86.10;;;;;;6184629;23;20459;-87
2023/06/07 11:04:39;;;;;;;8.27;3.22;;;21.90;80.80;;;;;;6159890;23;20435;-88
2023/06/07 11:07:27;;;;;;;8.38;3.00;;;21.90;82.90;;;;;;6185856;23;20017;-86
2023/06/07 11:10:04;;;;;;;11.15;3.70;;;22.00;85.80;;;;;;6159020;23;20017;-85
2023/06/07 11:12:43;;;;;;;11.77;3.60;;;22.00;82.30;;;;;;6185708;23;20021;-88
2023/06/07 11:15:21;;;;;;;7.75;2.90;;;22.10;82.70;;;;;;6156970;23;20021;-85
2023/06/07 11:18:00;;;;;;;11.02;4.03;;;22.10;83.90;;;;;;6158502;23;20148;-86
2023/06/07 11:20:43;;;;;;;10.45;3.53;;;22.10;81.20;;;;;;6158609;23;20024;-84
2023/06/07 11:23:22;;;;;;;;;;;22.20;80.70;;;;;;6158974;23;20013;-87
2023/06/07 11:25:51;;;;;;;8.13;2.63;;;22.10;82.40;;;;;;6185731;23;19916;-86
2023/06/07 11:28:27;;;;;;;7.38;3.20;;;22.30;85.10;;;;;;6158470;23;20013;-86
2023/06/07 11:30:53;;;;;;;9.63;3.20;;;22.40;85.10;;;;;;6158118;23;20027;-87
2023/06/07 11:33:22;;;;;;;9.15;3.40;;;22.50;84.60;;;;;;6158185;23;20028;-87
2023/06/07 11:35:52;;;;;;;14.73;3.75;;;22.60;84.10;;;;;;6157889;23;20009;-87
2023/06/07 11:38:19;;;;;;;8.10;3.40;;;22.60;78.70;;;;;;6184877;23;20045;-86
2023/06/07 11:40:45;;;;;;;14.00;3.92;;;22.70;82.30;;;;;;6155911;23;20017;-85
2023/06/07 11:43:12;;;;;;;11.77;3.85;;;22.70;76.40;;;;;;6158174;23;20465;-86
2023/06/07 11:45:42;;;;;;;9.52;3.33;;;22.80;77.50;;;;;;6157882;23;20009;-87
2023/06/07 11:48:08;;;;;;;11.40;3.60;;;22.80;82.40;;;;;;6184758;23;20022;-87
2023/06/07 11:50:35;;;;;;;11.90;4.10;;;22.90;82.40;;;;;;6157035;23;20434;-88
2023/06/07 11:53:01;;;;;;;11.75;3.88;;;23.00;77.50;;;;;;6187022;23;20043;-87
2023/06/07 11:55:27;;;;;;;8.65;3.40;;;23.00;78.30;;;;;;6159917;23;20345;-87
2023/06/07 11:57:54;;;;;;;8.13;3.40;;;23.00;82.00;;;;;;6158034;23;20328;-85
2023/06/07 12:00:23;;;;;;;15.25;4.00;;;23.10;84.30;;;;;;6186374;23;20051;-86
2023/06/07 12:02:50;;;;;;;7.72;3.67;;;23.20;81.10;;;;;;6185357;23;20032;-86
2023/06/07 12:05:17;;;;;;;11.43;3.92;;;23.30;82.50;;;;;;6158877;23;20319;-87
2023/06/07 12:07:43;;;;;;;12.43;3.80;;;23.50;82.80;;;;;;6159379;23;20369;-88
2023/06/07 12:10:10;;;;;;;7.38;3.13;;;23.50;80.20;;;;;;6159793;23;20045;-87
2023/06/07 12:12:39;;;;;;;14.32;3.90;;;23.50;81.70;;;;;;6158342;23;20013;-87
2023/06/07 12:15:05;;;;;;;14.82;4.57;;;23.60;77.90;;;;;;6159734;23;20016;-88
2023/06/07 12:17:35;;;;;;;10.38;4.10;;;23.60;77.40;;;;;;6157705;23;20080;-86
2023/06/07 12:20:11;;;;;;;10.25;4.00;;;23.50;72.50;;;;;;6159588;23;20024;-87
2023/06/07 12:22:38;;;;;;;13.57;4.03;;;23.50;77.80;;;;;;6159237;23;20017;-88
2023/06/07 12:25:09;;;;;;;11.80;3.85;;;23.50;76.60;;;;;;6184694;23;20040;-87
2023/06/07 12:27:36;;;;;;;11.77;3.70;;;23.60;80.50;;;;;;6185653;23;20452;-88
2023/06/07 12:30:06;;;;;;;11.18;3.78;;;23.70;77.40;;;;;;6185930;23;20009;-87
2023/06/07 12:32:32;;;;;;;10.48;3.75;;;23.70;77.80;;;;;;6184113;23;20080;-87
2023/06/07 12:35:05;;;;;;;9.82;3.72;;;23.80;79.10;;;;;;6159407;23;20378;-87
2023/06/07 12:37:35;;;;;;;13.00;4.00;;;23.90;82.10;;;;;;6158922;23;20027;-88
2023/06/07 12:40:05;;;;;;;7.18;3.20;;;23.90;76.10;;;;;;6184820;23;20017;-89
2023/06/07 12:42:32;;;;;;;11.18;3.75;;;23.90;80.60;;;;;;6159343;23;20021;-88
2023/06/07 12:44:58;;;;;;;11.07;3.60;;;24.00;82.50;;;;;;6159469;23;20028;-88
2023/06/07 12:47:24;;;;;;;11.45;3.70;;;24.10;79.40;;;;;;6158302;23;20013;-89